sensor_id;sensor_type;location;lat;lon;timestamp;temperature;humidity
69359;HTU21D;56520;49.066;8.660;2022-10-29T00:02:23;12.76;96.78
69359;HTU21D;56520;49.066;8.660;2022-10-29T00:04:49;12.77;96.79
69359;HTU21D;56520;49.066;8.660;2022-10-29T00:07:14;12.76;96.83
69359;HTU21D;56520;49.066;8.660;2022-10-29T00:09:40;12.76;96.84
69359;HTU21D;56520;49.066;8.660;2022-10-29T00:12:05;12.76;96.85
69359;HTU21D;56520;49.066;8.660;2022-10-29T00:14:31;12.77;96.88
69359;HTU21D;56520;49.066;8.660;2022-10-29T00:16:56;12.78;96.91
69359;HTU21D;56520;49.066;8.660;2022-10-29T00:19:22;12.79;96.91
69359;HTU21D;56520;49.066;8.660;2022-10-29T00:21:51;12.80;96.93
69359;HTU21D;56520;49.066;8.660;2022-10-29T00:24:16;12.85;97.00
69359;HTU21D;56520;49.066;8.660;2022-10-29T00:26:42;12.88;97.03
69359;HTU21D;56520;49.066;8.660;2022-10-29T00:29:07;12.88;97.07
69359;HTU21D;56520;49.066;8.660;2022-10-29T00:31:34;12.89;97.07
69359;HTU21D;56520;49.066;8.660;2022-10-29T00:34:00;12.90;97.10
69359;HTU21D;56520;49.066;8.660;2022-10-29T00:36:28;12.94;97.12
69359;HTU21D;56520;49.066;8.660;2022-10-29T00:38:54;12.95;97.14
69359;HTU21D;56520;49.066;8.660;2022-10-29T00:41:24;12.96;97.18
69359;HTU21D;56520;49.066;8.660;2022-10-29T00:46:37;12.96;97.22
69359;HTU21D;56520;49.066;8.660;2022-10-29T00:49:02;12.94;97.21
69359;HTU21D;56520;49.066;8.660;2022-10-29T00:51:29;12.93;97.23
69359;HTU21D;56520;49.066;8.660;2022-10-29T00:54:00;12.93;97.26
69359;HTU21D;56520;49.066;8.660;2022-10-29T00:56:28;12.91;97.27
69359;HTU21D;56520;49.066;8.660;2022-10-29T00:58:55;12.89;97.28
69359;HTU21D;56520;49.066;8.660;2022-10-29T01:01:20;12.88;97.30
69359;HTU21D;56520;49.066;8.660;2022-10-29T01:03:46;12.88;97.29
69359;HTU21D;56520;49.066;8.660;2022-10-29T01:06:12;12.88;97.28
69359;HTU21D;56520;49.066;8.660;2022-10-29T01:08:38;12.86;97.27
69359;HTU21D;56520;49.066;8.660;2022-10-29T01:16:59;12.90;97.23
69359;HTU21D;56520;49.066;8.660;2022-10-29T01:25:35;12.92;97.09
69359;HTU21D;56520;49.066;8.660;2022-10-29T01:31:17;12.90;97.04
69359;HTU21D;56520;49.066;8.660;2022-10-29T01:33:57;12.89;97.03
69359;HTU21D;56520;49.066;8.660;2022-10-29T01:36:39;12.90;97.01
69359;HTU21D;56520;49.066;8.660;2022-10-29T01:39:26;12.92;97.01
69359;HTU21D;56520;49.066;8.660;2022-10-29T01:42:01;12.92;96.97
69359;HTU21D;56520;49.066;8.660;2022-10-29T01:45:20;12.94;96.91
69359;HTU21D;56520;49.066;8.660;2022-10-29T01:47:27;12.95;96.82
69359;HTU21D;56520;49.066;8.660;2022-10-29T01:50:04;12.91;96.78
69359;HTU21D;56520;49.066;8.660;2022-10-29T01:52:35;12.88;96.74
69359;HTU21D;56520;49.066;8.660;2022-10-29T01:55:02;12.86;96.73
69359;HTU21D;56520;49.066;8.660;2022-10-29T02:00:02;12.82;96.72
69359;HTU21D;56520;49.066;8.660;2022-10-29T02:11:02;12.77;96.77
69359;HTU21D;56520;49.066;8.660;2022-10-29T02:13:36;12.76;96.77
69359;HTU21D;56520;49.066;8.660;2022-10-29T02:16:04;12.75;96.76
69359;HTU21D;56520;49.066;8.660;2022-10-29T02:18:41;12.72;96.75
69359;HTU21D;56520;49.066;8.660;2022-10-29T02:21:07;12.70;96.74
69359;HTU21D;56520;49.066;8.660;2022-10-29T02:23:32;12.65;96.73
69359;HTU21D;56520;49.066;8.660;2022-10-29T02:25:57;12.62;96.68
69359;HTU21D;56520;49.066;8.660;2022-10-29T02:28:23;12.58;96.68
69359;HTU21D;56520;49.066;8.660;2022-10-29T02:30:49;12.52;96.71
69359;HTU21D;56520;49.066;8.660;2022-10-29T02:33:15;12.50;96.71
69359;HTU21D;56520;49.066;8.660;2022-10-29T02:35:40;12.46;96.75
69359;HTU21D;56520;49.066;8.660;2022-10-29T02:38:06;12.44;96.75
69359;HTU21D;56520;49.066;8.660;2022-10-29T02:40:31;12.43;96.73
69359;HTU21D;56520;49.066;8.660;2022-10-29T02:42:56;12.41;96.71
69359;HTU21D;56520;49.066;8.660;2022-10-29T02:45:22;12.40;96.73
69359;HTU21D;56520;49.066;8.660;2022-10-29T02:47:47;12.40;96.74
69359;HTU21D;56520;49.066;8.660;2022-10-29T02:50:13;12.41;96.75
69359;HTU21D;56520;49.066;8.660;2022-10-29T02:52:38;12.44;96.73
69359;HTU21D;56520;49.066;8.660;2022-10-29T02:55:04;12.47;96.68
69359;HTU21D;56520;49.066;8.660;2022-10-29T02:57:30;12.48;96.65
69359;HTU21D;56520;49.066;8.660;2022-10-29T02:59:55;12.50;96.60
69359;HTU21D;56520;49.066;8.660;2022-10-29T03:02:21;12.51;96.59
69359;HTU21D;56520;49.066;8.660;2022-10-29T03:04:46;12.50;96.59
69359;HTU21D;56520;49.066;8.660;2022-10-29T03:07:11;12.50;96.59
69359;HTU21D;56520;49.066;8.660;2022-10-29T03:09:37;12.51;96.59
69359;HTU21D;56520;49.066;8.660;2022-10-29T03:12:02;12.51;96.59
69359;HTU21D;56520;49.066;8.660;2022-10-29T03:14:28;12.52;96.58
69359;HTU21D;56520;49.066;8.660;2022-10-29T03:16:53;12.50;96.58
69359;HTU21D;56520;49.066;8.660;2022-10-29T03:19:18;12.51;96.59
69359;HTU21D;56520;49.066;8.660;2022-10-29T03:21:44;12.51;96.61
69359;HTU21D;56520;49.066;8.660;2022-10-29T03:24:09;12.52;96.62
69359;HTU21D;56520;49.066;8.660;2022-10-29T03:26:35;12.53;96.64
69359;HTU21D;56520;49.066;8.660;2022-10-29T03:29:00;12.57;96.65
69359;HTU21D;56520;49.066;8.660;2022-10-29T03:31:26;12.56;96.65
69359;HTU21D;56520;49.066;8.660;2022-10-29T03:33:51;12.58;96.64
69359;HTU21D;56520;49.066;8.660;2022-10-29T03:36:16;12.62;96.63
69359;HTU21D;56520;49.066;8.660;2022-10-29T03:38:42;12.61;96.62
69359;HTU21D;56520;49.066;8.660;2022-10-29T03:41:07;12.62;96.60
69359;HTU21D;56520;49.066;8.660;2022-10-29T03:43:38;12.61;96.61
69359;HTU21D;56520;49.066;8.660;2022-10-29T03:46:04;12.62;96.62
69359;HTU21D;56520;49.066;8.660;2022-10-29T03:48:29;12.61;96.62
69359;HTU21D;56520;49.066;8.660;2022-10-29T03:50:55;12.61;96.62
69359;HTU21D;56520;49.066;8.660;2022-10-29T03:53:22;12.60;96.62
69359;HTU21D;56520;49.066;8.660;2022-10-29T03:55:51;12.60;96.63
69359;HTU21D;56520;49.066;8.660;2022-10-29T03:58:16;12.60;96.64
69359;HTU21D;56520;49.066;8.660;2022-10-29T04:00:42;12.61;96.65
69359;HTU21D;56520;49.066;8.660;2022-10-29T04:03:07;12.63;96.66
69359;HTU21D;56520;49.066;8.660;2022-10-29T04:05:33;12.64;96.63
69359;HTU21D;56520;49.066;8.660;2022-10-29T04:07:58;12.65;96.63
69359;HTU21D;56520;49.066;8.660;2022-10-29T04:10:23;12.65;96.63
69359;HTU21D;56520;49.066;8.660;2022-10-29T04:12:51;12.64;96.63
69359;HTU21D;56520;49.066;8.660;2022-10-29T04:15:16;12.63;96.63
69359;HTU21D;56520;49.066;8.660;2022-10-29T04:17:41;12.61;96.64
69359;HTU21D;56520;49.066;8.660;2022-10-29T04:20:07;12.59;96.64
69359;HTU21D;56520;49.066;8.660;2022-10-29T04:22:33;12.51;96.65
69359;HTU21D;56520;49.066;8.660;2022-10-29T04:24:58;12.47;96.68
69359;HTU21D;56520;49.066;8.660;2022-10-29T04:27:23;12.42;96.72
69359;HTU21D;56520;49.066;8.660;2022-10-29T04:29:49;12.37;96.75
69359;HTU21D;56520;49.066;8.660;2022-10-29T04:32:14;12.33;96.81
69359;HTU21D;56520;49.066;8.660;2022-10-29T04:34:39;12.29;96.85
69359;HTU21D;56520;49.066;8.660;2022-10-29T04:37:05;12.29;96.90
69359;HTU21D;56520;49.066;8.660;2022-10-29T04:39:30;12.26;96.93
69359;HTU21D;56520;49.066;8.660;2022-10-29T04:41:56;12.27;96.94
69359;HTU21D;56520;49.066;8.660;2022-10-29T04:44:21;12.21;96.93
69359;HTU21D;56520;49.066;8.660;2022-10-29T04:46:47;12.18;96.93
69359;HTU21D;56520;49.066;8.660;2022-10-29T04:49:12;12.16;96.95
69359;HTU21D;56520;49.066;8.660;2022-10-29T04:51:37;12.19;97.00
69359;HTU21D;56520;49.066;8.660;2022-10-29T04:54:03;12.20;97.00
69359;HTU21D;56520;49.066;8.660;2022-10-29T04:56:29;12.21;96.98
69359;HTU21D;56520;49.066;8.660;2022-10-29T04:58:55;12.20;96.96
69359;HTU21D;56520;49.066;8.660;2022-10-29T05:01:21;12.20;96.94
69359;HTU21D;56520;49.066;8.660;2022-10-29T05:03:46;12.17;96.91
69359;HTU21D;56520;49.066;8.660;2022-10-29T05:06:12;12.15;96.89
69359;HTU21D;56520;49.066;8.660;2022-10-29T05:08:37;12.13;96.90
69359;HTU21D;56520;49.066;8.660;2022-10-29T05:11:03;12.12;96.91
69359;HTU21D;56520;49.066;8.660;2022-10-29T05:13:29;12.11;96.91
69359;HTU21D;56520;49.066;8.660;2022-10-29T05:15:55;12.08;96.91
69359;HTU21D;56520;49.066;8.660;2022-10-29T05:18:21;12.06;96.90
69359;HTU21D;56520;49.066;8.660;2022-10-29T05:20:46;12.03;96.89
69359;HTU21D;56520;49.066;8.660;2022-10-29T05:23:12;11.98;96.90
69359;HTU21D;56520;49.066;8.660;2022-10-29T05:25:40;11.94;96.89
69359;HTU21D;56520;49.066;8.660;2022-10-29T05:28:11;11.89;96.90
69359;HTU21D;56520;49.066;8.660;2022-10-29T05:30:37;11.82;96.92
69359;HTU21D;56520;49.066;8.660;2022-10-29T05:33:07;11.78;96.97
69359;HTU21D;56520;49.066;8.660;2022-10-29T05:35:34;11.76;97.02
69359;HTU21D;56520;49.066;8.660;2022-10-29T05:37:59;11.71;97.04
69359;HTU21D;56520;49.066;8.660;2022-10-29T05:40:25;11.69;97.04
69359;HTU21D;56520;49.066;8.660;2022-10-29T05:42:50;11.64;97.06
69359;HTU21D;56520;49.066;8.660;2022-10-29T05:45:16;11.60;97.06
69359;HTU21D;56520;49.066;8.660;2022-10-29T05:47:42;11.56;97.05
69359;HTU21D;56520;49.066;8.660;2022-10-29T05:50:08;11.51;97.02
69359;HTU21D;56520;49.066;8.660;2022-10-29T05:52:33;11.46;97.02
69359;HTU21D;56520;49.066;8.660;2022-10-29T05:54:59;11.42;97.00
69359;HTU21D;56520;49.066;8.660;2022-10-29T05:57:24;11.39;96.97
69359;HTU21D;56520;49.066;8.660;2022-10-29T05:59:49;11.33;96.94
69359;HTU21D;56520;49.066;8.660;2022-10-29T06:02:15;11.30;96.94
69359;HTU21D;56520;49.066;8.660;2022-10-29T06:04:40;11.30;96.94
69359;HTU21D;56520;49.066;8.660;2022-10-29T06:07:06;11.28;96.89
69359;HTU21D;56520;49.066;8.660;2022-10-29T06:09:31;11.27;96.87
69359;HTU21D;56520;49.066;8.660;2022-10-29T06:11:56;11.29;96.87
69359;HTU21D;56520;49.066;8.660;2022-10-29T06:14:22;11.32;96.82
69359;HTU21D;56520;49.066;8.660;2022-10-29T06:16:48;11.31;96.81
69359;HTU21D;56520;49.066;8.660;2022-10-29T06:19:13;11.32;96.79
69359;HTU21D;56520;49.066;8.660;2022-10-29T06:21:39;11.34;96.80
69359;HTU21D;56520;49.066;8.660;2022-10-29T06:24:04;11.36;96.81
69359;HTU21D;56520;49.066;8.660;2022-10-29T06:26:30;11.37;96.79
69359;HTU21D;56520;49.066;8.660;2022-10-29T06:28:55;11.39;96.78
69359;HTU21D;56520;49.066;8.660;2022-10-29T06:31:21;11.44;96.78
69359;HTU21D;56520;49.066;8.660;2022-10-29T06:33:46;11.47;96.78
69359;HTU21D;56520;49.066;8.660;2022-10-29T06:36:12;11.53;96.80
69359;HTU21D;56520;49.066;8.660;2022-10-29T06:38:37;11.55;96.78
69359;HTU21D;56520;49.066;8.660;2022-10-29T06:41:03;11.57;96.79
69359;HTU21D;56520;49.066;8.660;2022-10-29T06:43:28;11.61;96.82
69359;HTU21D;56520;49.066;8.660;2022-10-29T06:45:53;11.63;96.81
69359;HTU21D;56520;49.066;8.660;2022-10-29T06:48:19;11.67;96.84
69359;HTU21D;56520;49.066;8.660;2022-10-29T06:50:45;11.71;96.81
69359;HTU21D;56520;49.066;8.660;2022-10-29T06:53:12;11.75;96.80
69359;HTU21D;56520;49.066;8.660;2022-10-29T06:55:38;11.83;96.80
69359;HTU21D;56520;49.066;8.660;2022-10-29T06:58:11;11.88;96.78
69359;HTU21D;56520;49.066;8.660;2022-10-29T07:00:37;11.96;96.75
69359;HTU21D;56520;49.066;8.660;2022-10-29T07:03:03;12.05;96.72
69359;HTU21D;56520;49.066;8.660;2022-10-29T07:05:30;12.12;96.68
69359;HTU21D;56520;49.066;8.660;2022-10-29T07:07:59;12.21;96.66
69359;HTU21D;56520;49.066;8.660;2022-10-29T07:10:27;12.31;96.62
69359;HTU21D;56520;49.066;8.660;2022-10-29T07:12:53;12.41;96.57
69359;HTU21D;56520;49.066;8.660;2022-10-29T07:15:21;12.49;96.52
69359;HTU21D;56520;49.066;8.660;2022-10-29T07:18:04;12.60;96.49
69359;HTU21D;56520;49.066;8.660;2022-10-29T07:20:38;12.72;96.46
69359;HTU21D;56520;49.066;8.660;2022-10-29T07:23:04;12.79;96.37
69359;HTU21D;56520;49.066;8.660;2022-10-29T07:25:30;12.89;96.29
69359;HTU21D;56520;49.066;8.660;2022-10-29T07:30:33;13.10;96.10
69359;HTU21D;56520;49.066;8.660;2022-10-29T07:32:58;13.22;95.98
69359;HTU21D;56520;49.066;8.660;2022-10-29T07:35:23;13.34;95.88
69359;HTU21D;56520;49.066;8.660;2022-10-29T07:37:49;13.45;95.75
69359;HTU21D;56520;49.066;8.660;2022-10-29T07:40:14;13.54;95.58
69359;HTU21D;56520;49.066;8.660;2022-10-29T07:42:40;13.63;95.42
69359;HTU21D;56520;49.066;8.660;2022-10-29T07:45:05;13.70;95.26
69359;HTU21D;56520;49.066;8.660;2022-10-29T07:47:31;13.78;95.13
69359;HTU21D;56520;49.066;8.660;2022-10-29T07:49:57;13.85;95.01
69359;HTU21D;56520;49.066;8.660;2022-10-29T07:52:22;13.93;94.89
69359;HTU21D;56520;49.066;8.660;2022-10-29T07:54:47;14.00;94.75
69359;HTU21D;56520;49.066;8.660;2022-10-29T07:57:13;14.10;94.61
69359;HTU21D;56520;49.066;8.660;2022-10-29T07:59:40;14.15;94.46
69359;HTU21D;56520;49.066;8.660;2022-10-29T08:02:08;14.24;94.36
69359;HTU21D;56520;49.066;8.660;2022-10-29T08:04:34;14.34;94.12
69359;HTU21D;56520;49.066;8.660;2022-10-29T08:06:59;14.47;94.02
69359;HTU21D;56520;49.066;8.660;2022-10-29T08:09:25;14.64;93.91
69359;HTU21D;56520;49.066;8.660;2022-10-29T08:11:50;14.79;93.80
69359;HTU21D;56520;49.066;8.660;2022-10-29T08:14:16;14.91;93.69
69359;HTU21D;56520;49.066;8.660;2022-10-29T08:16:41;15.10;93.62
69359;HTU21D;56520;49.066;8.660;2022-10-29T08:19:08;15.31;93.52
69359;HTU21D;56520;49.066;8.660;2022-10-29T08:21:33;15.47;93.32
69359;HTU21D;56520;49.066;8.660;2022-10-29T08:23:58;15.58;93.16
69359;HTU21D;56520;49.066;8.660;2022-10-29T08:26:24;15.68;92.76
69359;HTU21D;56520;49.066;8.660;2022-10-29T08:28:52;15.80;92.27
69359;HTU21D;56520;49.066;8.660;2022-10-29T08:31:18;15.88;91.87
69359;HTU21D;56520;49.066;8.660;2022-10-29T08:33:46;15.93;91.47
69359;HTU21D;56520;49.066;8.660;2022-10-29T08:36:11;15.95;90.95
69359;HTU21D;56520;49.066;8.660;2022-10-29T08:38:36;15.96;90.82
69359;HTU21D;56520;49.066;8.660;2022-10-29T08:46:48;16.14;89.52
69359;HTU21D;56520;49.066;8.660;2022-10-29T08:49:23;16.30;89.23
69359;HTU21D;56520;49.066;8.660;2022-10-29T08:51:57;16.45;88.61
69359;HTU21D;56520;49.066;8.660;2022-10-29T08:54:26;16.63;88.01
69359;HTU21D;56520;49.066;8.660;2022-10-29T08:56:56;16.86;87.19
69359;HTU21D;56520;49.066;8.660;2022-10-29T08:59:24;17.03;86.06
69359;HTU21D;56520;49.066;8.660;2022-10-29T09:01:50;17.03;85.67
69359;HTU21D;56520;49.066;8.660;2022-10-29T09:17:56;17.36;84.04
69359;HTU21D;56520;49.066;8.660;2022-10-29T09:20:45;17.36;83.85
69359;HTU21D;56520;49.066;8.660;2022-10-29T09:32:04;18.29;82.12
69359;HTU21D;56520;49.066;8.660;2022-10-29T09:34:48;18.52;82.10
69359;HTU21D;56520;49.066;8.660;2022-10-29T09:37:22;18.74;80.49
69359;HTU21D;56520;49.066;8.660;2022-10-29T09:39:49;19.00;78.47
69359;HTU21D;56520;49.066;8.660;2022-10-29T09:42:22;19.23;77.88
69359;HTU21D;56520;49.066;8.660;2022-10-29T09:44:57;19.43;75.80
69359;HTU21D;56520;49.066;8.660;2022-10-29T09:52:38;19.79;72.79
69359;HTU21D;56520;49.066;8.660;2022-10-29T09:55:05;19.82;72.64
69359;HTU21D;56520;49.066;8.660;2022-10-29T09:57:34;19.95;72.87
69359;HTU21D;56520;49.066;8.660;2022-10-29T10:00:05;20.06;70.74
69359;HTU21D;56520;49.066;8.660;2022-10-29T10:02:42;20.13;71.55
69359;HTU21D;56520;49.066;8.660;2022-10-29T10:07:37;20.35;71.55
69359;HTU21D;56520;49.066;8.660;2022-10-29T10:10:06;20.47;71.62
69359;HTU21D;56520;49.066;8.660;2022-10-29T10:22:53;20.70;69.84
69359;HTU21D;56520;49.066;8.660;2022-10-29T10:25:38;20.77;69.75
69359;HTU21D;56520;49.066;8.660;2022-10-29T10:30:40;20.92;67.76
69359;HTU21D;56520;49.066;8.660;2022-10-29T10:33:20;20.91;67.48
69359;HTU21D;56520;49.066;8.660;2022-10-29T10:35:47;20.91;68.03
69359;HTU21D;56520;49.066;8.660;2022-10-29T10:38:14;20.96;68.19
69359;HTU21D;56520;49.066;8.660;2022-10-29T10:40:40;21.02;67.96
69359;HTU21D;56520;49.066;8.660;2022-10-29T10:43:18;21.17;67.57
69359;HTU21D;56520;49.066;8.660;2022-10-29T10:45:51;21.27;67.25
69359;HTU21D;56520;49.066;8.660;2022-10-29T10:48:17;21.38;66.79
69359;HTU21D;56520;49.066;8.660;2022-10-29T10:50:43;21.48;66.33
69359;HTU21D;56520;49.066;8.660;2022-10-29T10:53:34;21.61;66.34
69359;HTU21D;56520;49.066;8.660;2022-10-29T10:56:00;21.74;66.03
69359;HTU21D;56520;49.066;8.660;2022-10-29T10:58:31;21.88;65.22
69359;HTU21D;56520;49.066;8.660;2022-10-29T11:01:03;22.05;65.19
69359;HTU21D;56520;49.066;8.660;2022-10-29T11:06:32;22.29;63.05
69359;HTU21D;56520;49.066;8.660;2022-10-29T11:09:17;22.37;63.50
69359;HTU21D;56520;49.066;8.660;2022-10-29T11:11:59;22.47;63.79
69359;HTU21D;56520;49.066;8.660;2022-10-29T11:14:32;22.56;63.10
69359;HTU21D;56520;49.066;8.660;2022-10-29T11:17:01;22.66;63.06
69359;HTU21D;56520;49.066;8.660;2022-10-29T11:19:32;22.70;62.85
69359;HTU21D;56520;49.066;8.660;2022-10-29T11:24:51;22.71;63.08
69359;HTU21D;56520;49.066;8.660;2022-10-29T11:37:58;23.07;62.04
69359;HTU21D;56520;49.066;8.660;2022-10-29T11:40:45;23.29;61.38
69359;HTU21D;56520;49.066;8.660;2022-10-29T11:43:12;23.52;61.53
69359;HTU21D;56520;49.066;8.660;2022-10-29T11:48:50;23.83;60.41
69359;HTU21D;56520;49.066;8.660;2022-10-29T11:56:54;23.76;59.83
69359;HTU21D;56520;49.066;8.660;2022-10-29T12:02:09;24.05;58.61
69359;HTU21D;56520;49.066;8.660;2022-10-29T12:10:00;24.41;58.00
69359;HTU21D;56520;49.066;8.660;2022-10-29T12:15:36;24.77;57.40
69359;HTU21D;56520;49.066;8.660;2022-10-29T12:18:09;24.92;56.60
69359;HTU21D;56520;49.066;8.660;2022-10-29T12:20:54;25.05;56.63
69359;HTU21D;56520;49.066;8.660;2022-10-29T12:26:22;25.16;56.65
69359;HTU21D;56520;49.066;8.660;2022-10-29T12:29:08;25.19;56.80
69359;HTU21D;56520;49.066;8.660;2022-10-29T12:32:24;25.21;56.22
69359;HTU21D;56520;49.066;8.660;2022-10-29T12:34:36;25.22;56.30
69359;HTU21D;56520;49.066;8.660;2022-10-29T12:37:23;25.29;56.93
69359;HTU21D;56520;49.066;8.660;2022-10-29T12:40:08;25.33;56.69
69359;HTU21D;56520;49.066;8.660;2022-10-29T12:42:37;25.25;56.30
69359;HTU21D;56520;49.066;8.660;2022-10-29T12:45:15;25.28;56.41
69359;HTU21D;56520;49.066;8.660;2022-10-29T12:55:59;25.23;56.48
69359;HTU21D;56520;49.066;8.660;2022-10-29T12:58:56;24.99;55.73
69359;HTU21D;56520;49.066;8.660;2022-10-29T13:09:19;24.38;57.79
69359;HTU21D;56520;49.066;8.660;2022-10-29T13:11:57;24.29;57.66
69359;HTU21D;56520;49.066;8.660;2022-10-29T13:16:51;24.13;57.46
69359;HTU21D;56520;49.066;8.660;2022-10-29T13:19:43;24.04;58.16
69359;HTU21D;56520;49.066;8.660;2022-10-29T13:24:38;23.96;58.74
69359;HTU21D;56520;49.066;8.660;2022-10-29T13:29:49;24.11;58.66
69359;HTU21D;56520;49.066;8.660;2022-10-29T13:34:58;24.21;58.72
69359;HTU21D;56520;49.066;8.660;2022-10-29T13:40:40;24.50;58.84
69359;HTU21D;56520;49.066;8.660;2022-10-29T13:45:32;24.63;58.69
69359;HTU21D;56520;49.066;8.660;2022-10-29T13:48:06;24.72;58.87
69359;HTU21D;56520;49.066;8.660;2022-10-29T13:50:37;24.78;58.93
69359;HTU21D;56520;49.066;8.660;2022-10-29T13:53:05;24.86;58.60
69359;HTU21D;56520;49.066;8.660;2022-10-29T13:55:34;24.87;58.54
69359;HTU21D;56520;49.066;8.660;2022-10-29T13:58:19;24.74;58.74
69359;HTU21D;56520;49.066;8.660;2022-10-29T14:00:49;24.76;58.93
69359;HTU21D;56520;49.066;8.660;2022-10-29T14:05:59;24.61;59.26
69359;HTU21D;56520;49.066;8.660;2022-10-29T14:10:56;24.19;60.54
69359;HTU21D;56520;49.066;8.660;2022-10-29T14:13:46;24.01;61.39
69359;HTU21D;56520;49.066;8.660;2022-10-29T14:16:13;23.86;62.04
69359;HTU21D;56520;49.066;8.660;2022-10-29T14:18:44;23.72;62.59
69359;HTU21D;56520;49.066;8.660;2022-10-29T14:21:29;23.56;63.17
69359;HTU21D;56520;49.066;8.660;2022-10-29T14:24:03;23.43;63.79
69359;HTU21D;56520;49.066;8.660;2022-10-29T14:26:34;23.28;64.31
69359;HTU21D;56520;49.066;8.660;2022-10-29T14:29:21;23.12;64.59
69359;HTU21D;56520;49.066;8.660;2022-10-29T14:32:06;22.98;64.94
69359;HTU21D;56520;49.066;8.660;2022-10-29T14:34:32;22.88;65.30
69359;HTU21D;56520;49.066;8.660;2022-10-29T14:37:02;22.77;65.85
69359;HTU21D;56520;49.066;8.660;2022-10-29T14:39:29;22.63;66.32
69359;HTU21D;56520;49.066;8.660;2022-10-29T14:41:56;22.44;67.09
69359;HTU21D;56520;49.066;8.660;2022-10-29T14:44:27;22.29;67.48
69359;HTU21D;56520;49.066;8.660;2022-10-29T14:47:12;22.21;67.67
69359;HTU21D;56520;49.066;8.660;2022-10-29T14:49:45;22.18;68.04
69359;HTU21D;56520;49.066;8.660;2022-10-29T14:54:53;22.06;68.84
69359;HTU21D;56520;49.066;8.660;2022-10-29T14:57:21;21.98;69.20
69359;HTU21D;56520;49.066;8.660;2022-10-29T14:59:52;21.91;69.58
69359;HTU21D;56520;49.066;8.660;2022-10-29T15:02:19;21.81;69.81
69359;HTU21D;56520;49.066;8.660;2022-10-29T15:04:54;21.70;70.30
69359;HTU21D;56520;49.066;8.660;2022-10-29T15:12:56;21.23;72.02
69359;HTU21D;56520;49.066;8.660;2022-10-29T15:15:28;21.08;72.30
69359;HTU21D;56520;49.066;8.660;2022-10-29T15:18:18;20.93;72.76
69359;HTU21D;56520;49.066;8.660;2022-10-29T15:20:47;20.80;73.09
69359;HTU21D;56520;49.066;8.660;2022-10-29T15:28:36;20.49;73.58
69359;HTU21D;56520;49.066;8.660;2022-10-29T15:31:03;20.41;73.90
69359;HTU21D;56520;49.066;8.660;2022-10-29T15:33:29;20.31;74.29
69359;HTU21D;56520;49.066;8.660;2022-10-29T15:36:00;20.21;74.65
69359;HTU21D;56520;49.066;8.660;2022-10-29T15:43:32;19.95;75.85
69359;HTU21D;56520;49.066;8.660;2022-10-29T15:45:58;19.84;76.53
69359;HTU21D;56520;49.066;8.660;2022-10-29T15:48:34;19.69;76.87
69359;HTU21D;56520;49.066;8.660;2022-10-29T15:51:01;19.55;77.39
69359;HTU21D;56520;49.066;8.660;2022-10-29T15:53:27;19.45;77.91
69359;HTU21D;56520;49.066;8.660;2022-10-29T15:55:52;19.37;78.24
69359;HTU21D;56520;49.066;8.660;2022-10-29T15:58:21;19.30;78.78
69359;HTU21D;56520;49.066;8.660;2022-10-29T16:00:48;19.23;78.95
69359;HTU21D;56520;49.066;8.660;2022-10-29T16:05:45;19.08;79.66
69359;HTU21D;56520;49.066;8.660;2022-10-29T16:08:27;19.03;79.95
69359;HTU21D;56520;49.066;8.660;2022-10-29T16:10:54;18.97;80.41
69359;HTU21D;56520;49.066;8.660;2022-10-29T16:13:22;18.89;80.76
69359;HTU21D;56520;49.066;8.660;2022-10-29T16:15:48;18.84;81.14
69359;HTU21D;56520;49.066;8.660;2022-10-29T16:18:13;18.74;81.43
69359;HTU21D;56520;49.066;8.660;2022-10-29T16:20:39;18.68;81.49
69359;HTU21D;56520;49.066;8.660;2022-10-29T16:23:04;18.62;81.75
69359;HTU21D;56520;49.066;8.660;2022-10-29T16:25:29;18.54;82.15
69359;HTU21D;56520;49.066;8.660;2022-10-29T16:27:55;18.47;82.44
69359;HTU21D;56520;49.066;8.660;2022-10-29T16:30:22;18.40;82.78
69359;HTU21D;56520;49.066;8.660;2022-10-29T16:32:48;18.35;82.95
69359;HTU21D;56520;49.066;8.660;2022-10-29T16:35:20;18.30;83.17
69359;HTU21D;56520;49.066;8.660;2022-10-29T16:37:46;18.26;83.64
69359;HTU21D;56520;49.066;8.660;2022-10-29T16:40:12;18.21;83.72
69359;HTU21D;56520;49.066;8.660;2022-10-29T16:42:38;18.14;83.86
69359;HTU21D;56520;49.066;8.660;2022-10-29T16:45:05;18.10;83.97
69359;HTU21D;56520;49.066;8.660;2022-10-29T16:47:31;18.05;84.19
69359;HTU21D;56520;49.066;8.660;2022-10-29T16:49:56;17.99;84.27
69359;HTU21D;56520;49.066;8.660;2022-10-29T16:52:22;17.96;84.46
69359;HTU21D;56520;49.066;8.660;2022-10-29T16:54:48;17.92;84.55
69359;HTU21D;56520;49.066;8.660;2022-10-29T16:57:13;17.87;84.72
69359;HTU21D;56520;49.066;8.660;2022-10-29T16:59:38;17.83;84.91
69359;HTU21D;56520;49.066;8.660;2022-10-29T17:02:04;17.79;85.17
69359;HTU21D;56520;49.066;8.660;2022-10-29T17:04:29;17.73;85.35
69359;HTU21D;56520;49.066;8.660;2022-10-29T17:06:55;17.69;85.58
69359;HTU21D;56520;49.066;8.660;2022-10-29T17:09:20;17.63;85.82
69359;HTU21D;56520;49.066;8.660;2022-10-29T17:11:47;17.59;86.10
69359;HTU21D;56520;49.066;8.660;2022-10-29T17:14:13;17.53;86.29
69359;HTU21D;56520;49.066;8.660;2022-10-29T17:16:38;17.48;86.51
69359;HTU21D;56520;49.066;8.660;2022-10-29T17:19:03;17.45;86.80
69359;HTU21D;56520;49.066;8.660;2022-10-29T17:21:29;17.40;87.07
69359;HTU21D;56520;49.066;8.660;2022-10-29T17:23:55;17.36;87.20
69359;HTU21D;56520;49.066;8.660;2022-10-29T17:26:21;17.32;87.41
69359;HTU21D;56520;49.066;8.660;2022-10-29T17:28:46;17.29;87.66
69359;HTU21D;56520;49.066;8.660;2022-10-29T17:31:11;17.23;87.72
69359;HTU21D;56520;49.066;8.660;2022-10-29T17:33:37;17.19;87.77
69359;HTU21D;56520;49.066;8.660;2022-10-29T17:36:09;17.16;87.99
69359;HTU21D;56520;49.066;8.660;2022-10-29T17:38:35;17.13;87.96
69359;HTU21D;56520;49.066;8.660;2022-10-29T17:41:00;17.10;87.98
69359;HTU21D;56520;49.066;8.660;2022-10-29T17:43:26;17.06;88.06
69359;HTU21D;56520;49.066;8.660;2022-10-29T17:45:51;17.03;88.18
69359;HTU21D;56520;49.066;8.660;2022-10-29T17:48:17;16.99;88.32
69359;HTU21D;56520;49.066;8.660;2022-10-29T17:50:57;16.95;88.42
69359;HTU21D;56520;49.066;8.660;2022-10-29T17:53:23;16.92;88.52
69359;HTU21D;56520;49.066;8.660;2022-10-29T17:55:49;16.90;88.60
69359;HTU21D;56520;49.066;8.660;2022-10-29T17:58:19;16.88;88.77
69359;HTU21D;56520;49.066;8.660;2022-10-29T18:00:45;16.85;89.02
69359;HTU21D;56520;49.066;8.660;2022-10-29T18:03:12;16.82;89.06
69359;HTU21D;56520;49.066;8.660;2022-10-29T18:05:37;16.81;89.15
69359;HTU21D;56520;49.066;8.660;2022-10-29T18:08:03;16.78;89.30
69359;HTU21D;56520;49.066;8.660;2022-10-29T18:10:31;16.74;89.52
69359;HTU21D;56520;49.066;8.660;2022-10-29T18:12:56;16.73;89.74
69359;HTU21D;56520;49.066;8.660;2022-10-29T18:15:21;16.69;89.78
69359;HTU21D;56520;49.066;8.660;2022-10-29T18:17:47;16.64;89.84
69359;HTU21D;56520;49.066;8.660;2022-10-29T18:20:12;16.61;89.99
69359;HTU21D;56520;49.066;8.660;2022-10-29T18:22:37;16.57;90.18